Airfield :
LOGIN :

Register | Disclaimer

   EN    FR    IT 

 










Legend :    VFR   Marginal VFR   IFR   Intensive IFR   Very Intensive IFR
Visi :
Ceiling :
>= 8 km
>= 3000ft
5 to 8 km
1000 to 3000 ft
1500m to 5 km
500 to 1000 ft
800 to 1500m
200 to 500 ft
< 800m
< 200 ft
Symbols :   Thunderstorms  Fog  Heavy snow  Heavy precipitations  Wind > 20 kt
SIGMETs :     Misc.  Thunderstorms  Icing  Turbulence  Mountain Waves  Volcanic Ashes







- Airport Elevation : 157 ft
- IATA code : LIL
- Download approach charts


LFQQ - Lille Lesquin

CURRENT METAR :
  • 221200Z AUTO 34006KT 310V010 9999 BKN045 BKN072 BKN120 23/13 Q1012 TEMPO 3000 SHRA BKN040CB

EXPIRED METARs :
  • 221130Z AUTO 02004KT 300V100 9999 SCT041 BKN054 BKN150 23/13 Q1013 TEMPO 3000 SHRA BKN040CB
  • 221100Z AUTO VRB03KT 9999 SCT039 SCT092 BKN220 23/13 Q1013 TEMPO 3000 SHRA BKN030CB
  • 221030Z AUTO VRB06KT CAVOK 23/13 Q1013 TEMPO 3000 SHRA BKN030CB
  • 221000Z AUTO 32005KT 260V060 CAVOK 22/13 Q1013 BECMG SCT030TCU
  • 220930Z AUTO 35005KT 320V050 CAVOK 22/13 Q1013 BECMG SCT030TCU

TAF TAF LFQQ
Valid from the 22 at 12:00 until the 23 at 18:00 UTC


221100Z 2212/2318 32005KT CAVOK
TEMPO 2212/2220 3000 SHRA BKN040CB
PROB30
TEMPO 2212/2220 TSRAGR
TEMPO 2300/2310 3000 SHRA BKN007 BKN020CB
TEMPO 2312/2318 3000 SHRA BKN040CB
ATIS : +33 3 20 16 19 54
No reported NOTAMs for that airfield.



MET'MAP, your aeronautical weather chart ! - Copyright ORBIFLY December 2007 - Disclaimer

ORBIFLY MET'MAP TEAM :

Programming & Development : Alexandra Zaïnal
Concept & Development : Baudouin d'Aumeries
Co-Development & Prog : Marc-Olivier Méhu
Technical & hardware support : Manuel Goepfert

Contact : metmap@orbifly.com




SOURCES & CREDITS :

   NOAA